Time;durP1;ratioP1;P1;durP2;ratioP2;P2;SDS_P1;SDS_P2;PMS_P1;PMS_P2;Temp;Humidity;BMP_temperature;BMP_pressure;BME280_temperature;BME280_humidity;BME280_pressure;Samples;Min_cycle;Max_cycle;Signal;HPM_P1;HPM_P2
2022/06/04 00:00:50;;;;;;;17.50;15.77;;;;;;;28.86;73.56;100870.78;5056574;28;66207;-41
2022/06/04 00:03:22;;;;;;;19.38;15.43;;;;;;;29.24;73.15;100919.66;5043955;28;69382;-41
2022/06/04 00:05:55;;;;;;;18.27;16.25;;;;;;;29.26;74.51;100922.97;5059623;28;66556;-40
2022/06/04 00:08:28;;;;;;;19.08;16.95;;;;;;;29.32;74.86;100932.94;5045947;28;70367;-40
2022/06/04 00:16:37;;;;;;;26.50;19.63;;;;;;;29.38;75.07;100942.91;5055821;28;67481;-41
2022/06/04 00:19:08;;;;;;;22.00;18.93;;;;;;;29.38;75.36;100948.31;5055688;28;70082;-41
2022/06/04 00:21:39;;;;;;;27.58;19.27;;;;;;;29.42;75.08;100953.31;5041906;28;66262;-44
2022/06/04 00:24:10;;;;;;;31.17;20.60;;;;;;;29.44;76.20;100962.03;5058828;28;69652;-39
2022/06/04 00:26:41;;;;;;;26.83;19.67;;;;;;;29.52;74.57;100975.34;5047603;28;65528;-39
2022/06/04 00:29:12;;;;;;;28.88;20.48;;;;;;;29.53;76.84;100977.84;5042669;28;69491;-39
2022/06/04 00:31:43;;;;;;;26.58;20.42;;;;;;;29.53;76.08;100972.44;5052950;28;65837;-40
2022/06/04 00:34:15;;;;;;;27.95;20.63;;;;;;;29.55;76.67;100978.44;5050159;28;70591;-41
2022/06/04 00:36:46;;;;;;;32.70;20.58;;;;;;;29.54;77.19;100981.38;5049882;28;65414;-40
2022/06/04 00:39:17;;;;;;;21.65;17.45;;;;;;;29.71;73.08;100979.94;5053915;28;69665;-40
2022/06/04 00:42:04;;;;;;;25.13;17.60;;;;;;;29.78;72.85;100988.88;5039949;28;66628;-41
2022/06/04 00:45:12;;;;;;;25.67;16.73;;;;;;;29.80;73.24;100991.34;5048312;28;70368;-41
2022/06/04 00:47:43;;;;;;;18.15;16.27;;;;;;;29.94;71.75;100997.56;5037138;28;66332;-40
2022/06/04 00:50:16;;;;;;;18.30;16.35;;;;;;;29.63;71.43;100936.91;5053622;28;69514;-40
2022/06/04 00:52:49;;;;;;;25.85;16.38;;;;;;;30.06;71.41;100998.56;5051096;28;65749;-42
2022/06/04 00:55:20;;;;;;;19.42;15.77;;;;;;;30.14;70.62;100995.63;5051755;28;70230;-42
2022/06/04 00:58:07;;;;;;;22.73;15.97;;;;;;;30.16;71.46;101003.56;5036669;28;66086;-42
2022/06/04 01:00:50;;;;;;;20.08;15.07;;;;;;;29.95;71.05;100954.09;5036525;28;69283;-41
2022/06/04 01:03:31;;;;;;;16.95;15.23;;;;;;;30.30;70.42;100998.97;5035913;28;65160;-50
2022/06/04 01:06:11;;;;;;;15.73;14.30;;;;;;;29.95;70.05;100937.03;5038897;28;69648;-42
2022/06/04 01:08:47;;;;;;;18.35;14.35;;;;;;;30.36;69.90;100998.09;5026514;28;65902;-41
2022/06/04 01:11:32;;;;;;;22.98;14.82;;;;;;;30.39;69.24;101003.09;5037616;28;69983;-40
2022/06/04 01:14:16;;;;;;;15.45;13.63;;;;;;;30.33;70.23;100988.53;5038474;28;65553;-40
2022/06/04 01:17:00;;;;;;;15.77;14.10;;;;;;;30.44;69.78;100995.16;5044545;28;69665;-40
2022/06/04 01:19:46;;;;;;;15.40;13.68;;;;;;;30.42;69.53;101000.81;5059261;28;66101;-41
2022/06/04 01:22:41;;;;;;;15.43;13.80;;;;;;;30.50;69.58;101002.41;5052035;28;69862;-40
2022/06/04 01:25:15;;;;;;;17.88;14.00;;;;;;;30.55;68.38;101007.19;5058852;28;65008;-41
2022/06/04 01:28:16;;;;;;;13.73;12.27;;;;;;;30.57;68.74;100999.69;5062158;28;70370;-40
2022/06/04 01:30:51;;;;;;;15.52;12.15;;;;;;;30.62;68.29;100997.16;5048163;28;66296;-40
2022/06/04 01:33:42;;;;;;;15.93;11.98;;;;;;;30.57;68.90;101011.34;5030819;28;69138;-40
2022/06/04 01:36:13;;;;;;;14.98;12.02;;;;;;;30.67;68.34;101005.47;5045242;28;65201;-41
2022/06/04 01:38:53;;;;;;;12.02;11.02;;;;;;;30.66;68.06;100996.50;5046431;28;69958;-42
2022/06/04 01:41:39;;;;;;;12.20;11.05;;;;;;;30.67;68.23;101000.03;5044823;28;65890;-40
2022/06/04 01:44:25;;;;;;;12.68;11.38;;;;;;;30.72;67.59;100987.50;5043104;28;69719;-41
2022/06/04 01:46:59;;;;;;;11.55;10.45;;;;;;;30.75;67.60;100977.31;5026473;28;65068;-41
2022/06/04 01:49:50;;;;;;;12.93;10.88;;;;;;;30.72;67.61;100987.50;5040609;28;69972;-41
2022/06/04 01:52:28;;;;;;;11.48;10.52;;;;;;;30.80;67.25;100989.19;5047994;28;66390;-41
2022/06/04 01:55:12;;;;;;;11.18;10.20;;;;;;;30.80;67.09;100989.19;5055727;28;69436;-42
2022/06/04 01:57:57;;;;;;;10.13;9.43;;;;;;;30.43;67.07;100920.44;5045565;28;65640;-40
2022/06/04 02:00:43;;;;;;;11.90;10.05;;;;;;;30.81;66.81;100971.88;5041498;28;70610;-40
2022/06/04 02:03:19;;;;;;;10.35;9.45;;;;;;;30.66;66.86;100944.25;5045395;28;66573;-40
2022/06/04 02:05:52;;;;;;;10.90;8.95;;;;;;;30.94;66.78;100984.50;5042085;28;68931;-41
2022/06/04 02:08:30;;;;;;;9.40;8.65;;;;;;;30.98;66.33;100985.75;5036087;28;65426;-41
2022/06/04 02:11:07;;;;;;;12.20;9.45;;;;;;;30.99;65.96;100995.53;5041828;28;69179;-41
2022/06/04 02:13:39;;;;;;;9.65;8.85;;;;;;;31.01;66.43;101006.97;5053318;28;65217;-41
2022/06/04 02:16:14;;;;;;;9.65;8.82;;;;;;;31.02;66.16;100997.78;5035543;28;68905;-41
2022/06/04 02:18:45;;;;;;;9.65;8.93;;;;;;;31.05;66.24;100994.66;5030733;28;66749;-41
2022/06/04 02:21:18;;;;;;;9.95;8.93;;;;;;;31.06;65.66;100988.16;5047286;28;70281;-40
2022/06/04 02:23:49;;;;;;;11.23;8.75;;;;;;;31.10;65.55;100984.00;5040535;28;65494;-41
2022/06/04 02:26:22;;;;;;;8.77;8.25;;;;;;;31.11;66.00;100982.09;5020223;28;70063;-41
2022/06/04 02:28:56;;;;;;;9.73;8.93;;;;;;;31.03;65.50;100961.50;5041147;28;65228;-40
2022/06/04 02:31:38;;;;;;;9.40;8.57;;;;;;;31.14;65.25;100981.66;5039582;28;70333;-42
2022/06/04 02:34:53;;;;;;;8.32;7.75;;;;;;;31.07;65.36;100989.84;5055226;28;66157;-40
2022/06/04 02:37:52;;;;;;;8.85;8.27;;;;;;;30.72;65.51;100921.69;5053201;28;70221;-40
2022/06/04 02:40:34;;;;;;;9.77;8.98;;;;;;;30.94;65.28;100935.75;5040879;28;66700;-40
2022/06/04 02:43:14;;;;;;;9.40;8.43;;;;;;;31.28;65.24;100979.69;5050430;28;69388;-40
2022/06/04 02:46:22;;;;;;;9.30;8.48;;;;;;;30.89;65.10;100919.31;5039232;28;64690;-40
2022/06/04 02:49:03;;;;;;;8.43;7.93;;;;;;;30.98;65.08;100918.03;5044448;28;70238;-41
2022/06/04 02:51:38;;;;;;;8.77;7.97;;;;;;;30.97;65.06;100905.50;5047927;28;65585;-40
2022/06/04 02:54:18;;;;;;;7.88;7.45;;;;;;;31.38;64.82;100969.22;5041786;28;70811;-40
2022/06/04 02:56:52;;;;;;;8.02;7.43;;;;;;;31.24;64.61;100940.53;5042559;28;66068;-41
2022/06/04 02:59:26;;;;;;;7.80;7.18;;;;;;;31.30;64.76;100939.63;5053298;28;69651;-40
2022/06/04 03:02:00;;;;;;;8.18;7.57;;;;;;;31.45;64.60;100969.16;5040391;28;65195;-41
2022/06/04 03:04:47;;;;;;;8.85;7.75;;;;;;;31.35;64.60;100962.31;5052462;28;70558;-41
2022/06/04 03:07:20;;;;;;;7.70;7.10;;;;;;;31.46;64.21;100955.38;5040925;28;66658;-40
2022/06/04 03:09:57;;;;;;;8.45;7.75;;;;;;;31.49;64.24;100949.50;5042701;28;70603;-42
2022/06/04 03:12:27;;;;;;;8.43;7.65;;;;;;;31.53;63.98;100944.47;5056043;28;66676;-41
2022/06/04 03:14:58;;;;;;;9.27;7.25;;;;;;;31.52;64.40;100940.94;5041860;28;71625;-41
2022/06/04 03:17:29;;;;;;;7.88;7.30;;;;;;;31.56;64.26;100944.84;5041864;28;65498;-45
2022/06/04 03:20:00;;;;;;;8.27;7.57;;;;;;;31.54;64.05;100944.25;5042637;28;70093;-41
2022/06/04 03:22:31;;;;;;;8.47;7.77;;;;;;;31.57;63.74;100945.69;5040434;28;66315;-41
2022/06/04 03:25:03;;;;;;;7.50;7.00;;;;;;;31.61;64.09;100934.16;5042570;28;70321;-41
2022/06/04 03:27:34;;;;;;;8.35;6.53;;;;;;;31.62;64.10;100932.25;5043847;28;66015;-42
2022/06/04 03:30:07;;;;;;;7.43;6.93;;;;;;;31.66;64.08;100932.66;5050791;28;69072;-41
2022/06/04 03:32:38;;;;;;;7.68;7.18;;;;;;;31.67;63.83;100934.31;5054760;28;66051;-41
2022/06/04 03:35:10;;;;;;;7.03;6.50;;;;;;;31.64;63.80;100926.63;5052369;28;70254;-40
2022/06/04 03:37:40;;;;;;;;;;;;;;;31.40;64.57;100934.59;5050914;28;66087;-42
2022/06/04 03:40:12;;;;;;;6.90;6.22;;;;;;;31.74;63.76;100929.66;5052937;28;70465;-40
2022/06/04 03:42:43;;;;;;;6.07;5.60;;;;;;;31.77;64.58;100929.22;5058800;28;65657;-40
2022/06/04 03:45:15;;;;;;;7.18;6.60;;;;;;;31.82;64.68;100926.66;5039167;28;70054;-40
2022/06/04 03:47:45;;;;;;;6.70;6.10;;;;;;;31.86;64.57;100927.84;5041298;28;66200;-40
2022/06/04 03:50:18;;;;;;;6.32;5.93;;;;;;;31.90;64.61;100923.63;5051375;28;70149;-42
2022/06/04 03:52:49;;;;;;;6.55;6.07;;;;;;;31.93;64.68;100912.38;5040462;28;65757;-41
2022/06/04 03:55:20;;;;;;;7.28;6.68;;;;;;;31.95;65.11;100912.13;5051578;28;69864;-41
2022/06/04 03:57:52;;;;;;;6.45;5.85;;;;;;;31.93;65.11;100909.66;5039849;28;66566;-41
2022/06/04 04:00:30;;;;;;;;;;;;;;;31.65;66.29;100909.28;5038824;28;69734;-41
2022/06/04 04:03:14;;;;;;;5.47;5.18;;;;;;;31.98;65.12;100901.66;5051491;28;66449;-42
2022/06/04 04:05:54;;;;;;;6.32;5.80;;;;;;;31.72;65.25;100862.06;5053104;28;68964;-40
2022/06/04 04:08:26;;;;;;;6.80;5.40;;;;;;;32.05;65.08;100905.09;5044328;28;65531;-40
2022/06/04 04:10:57;;;;;;;7.50;5.68;;;;;;;32.01;65.19;100898.50;5042235;28;70452;-40
2022/06/04 04:13:28;;;;;;;6.05;5.45;;;;;;;32.07;65.53;100891.31;5055205;28;66650;-40
2022/06/04 04:15:58;;;;;;;7.72;5.38;;;;;;;32.09;65.28;100889.19;5041322;28;69296;-40
2022/06/04 04:18:29;;;;;;;9.37;5.80;;;;;;;32.10;65.14;100890.03;5042035;28;66513;-41
2022/06/04 04:21:05;;;;;;;6.35;5.03;;;;;;;31.99;64.96;100869.94;5052547;28;69890;-40
2022/06/04 04:23:37;;;;;;;5.40;4.97;;;;;;;32.16;65.08;100889.13;5046270;28;66488;-39
2022/06/04 04:26:09;;;;;;;;;;;;;;;31.83;66.29;100883.00;5059630;28;70413;-40
2022/06/04 04:28:40;;;;;;;6.20;4.80;;;;;;;32.13;65.23;100884.97;5057594;28;65849;-41
2022/06/04 04:31:17;;;;;;;5.05;4.75;;;;;;;31.97;65.53;100853.88;5059092;28;70173;-41
2022/06/04 04:33:48;;;;;;;5.22;4.80;;;;;;;32.21;65.32;100875.69;5045531;28;66474;-41
2022/06/04 04:36:19;;;;;;;5.45;4.95;;;;;;;32.21;65.43;100881.94;5056533;28;69079;-40
2022/06/04 04:38:52;;;;;;;5.00;4.70;;;;;;;32.25;65.35;100871.44;5052930;28;67014;-41
2022/06/04 04:41:23;;;;;;;5.32;4.57;;;;;;;32.26;65.21;100867.66;5038856;28;70026;-41
2022/06/04 04:43:54;;;;;;;7.53;5.13;;;;;;;32.20;65.46;100853.13;5056196;28;65842;-41
2022/06/04 04:46:24;;;;;;;5.10;4.80;;;;;;;32.27;65.15;100859.31;5048275;28;69205;-41
2022/06/04 04:48:56;;;;;;;4.95;4.65;;;;;;;32.29;65.08;100845.53;5052376;28;66119;-41
2022/06/04 04:51:28;;;;;;;4.90;4.50;;;;;;;32.29;65.05;100845.53;5048979;28;70302;-41
2022/06/04 04:53:59;;;;;;;4.70;4.00;;;;;;;32.01;65.26;100789.97;5042973;28;65048;-40
2022/06/04 04:56:30;;;;;;;4.30;3.90;;;;;;;32.32;65.34;100827.91;5058123;28;69458;-41
2022/06/04 04:59:01;;;;;;;5.20;4.80;;;;;;;32.23;65.13;100814.72;5051954;28;65409;-41
2022/06/04 05:01:34;;;;;;;4.30;4.00;;;;;;;32.28;65.18;100812.09;5060193;28;43148;-40
2022/06/04 05:04:05;;;;;;;4.30;3.93;;;;;;;32.34;65.16;100821.19;5057036;28;65127;-40
2022/06/04 05:06:36;;;;;;;4.20;3.90;;;;;;;32.31;65.34;100808.09;5058536;28;70086;-40
2022/06/04 05:09:08;;;;;;;4.38;4.03;;;;;;;32.35;65.70;100812.00;5056101;28;65299;-41
2022/06/04 05:11:39;;;;;;;4.10;3.70;;;;;;;32.38;65.26;100803.41;5051795;28;69623;-40
2022/06/04 05:14:13;;;;;;;4.88;3.63;;;;;;;32.38;65.12;100799.88;5049395;28;66122;-40
2022/06/04 05:16:43;;;;;;;9.43;3.53;;;;;;;32.38;65.04;100792.53;5054513;28;70875;-40
2022/06/04 05:19:14;;;;;;;6.30;3.58;;;;;;;32.40;65.09;100795.88;5050946;28;66270;-40
2022/06/04 05:21:48;;;;;;;7.60;3.80;;;;;;;32.40;65.12;100785.00;5058048;28;70363;-41
2022/06/04 05:24:27;;;;;;;3.67;3.42;;;;;;;32.42;64.80;100782.84;5059492;28;66677;-41
2022/06/04 05:26:58;;;;;;;3.92;3.63;;;;;;;32.44;64.91;100786.19;5058954;28;70036;-41
2022/06/04 05:29:31;;;;;;;4.50;4.10;;;;;;;32.39;64.98;100771.66;5055464;28;65856;-42
2022/06/04 05:32:04;;;;;;;4.60;4.20;;;;;;;32.15;64.94;100730.06;5037240;28;69778;-41
2022/06/04 05:34:36;;;;;;;4.22;3.83;;;;;;;32.46;64.60;100777.84;5049827;28;66172;-40
2022/06/04 05:37:07;;;;;;;5.50;5.03;;;;;;;32.48;65.02;100778.41;5058273;28;70085;-40
2022/06/04 05:39:38;;;;;;;5.80;5.30;;;;;;;32.52;64.90;100773.38;5043647;28;66040;-41
2022/06/04 05:42:10;;;;;;;6.13;5.63;;;;;;;32.57;65.04;100763.47;5055256;28;70000;-41
2022/06/04 05:44:41;;;;;;;5.90;5.10;;;;;;;32.58;64.62;100762.38;5059571;28;66209;-41
2022/06/04 05:47:11;;;;;;;6.10;5.70;;;;;;;32.61;64.73;100755.66;5054104;28;70246;-41
2022/06/04 05:49:49;;;;;;;6.20;5.60;;;;;;;32.63;64.49;100748.09;5038337;28;65075;-40
2022/06/04 05:52:20;;;;;;;6.55;6.07;;;;;;;32.64;64.58;100738.88;5047694;28;69953;-41
2022/06/04 05:54:51;;;;;;;6.68;6.18;;;;;;;32.63;64.51;100746.22;5042952;28;66271;-40
2022/06/04 05:57:22;;;;;;;6.25;5.75;;;;;;;32.63;64.45;100731.81;5052133;28;69808;-40
2022/06/04 05:59:53;;;;;;;6.55;6.05;;;;;;;32.69;64.67;100739.00;5054268;28;65089;-40
2022/06/04 06:02:24;;;;;;;6.60;6.05;;;;;;;32.71;64.06;100734.19;5047569;28;69290;-41
2022/06/04 06:04:55;;;;;;;6.70;6.07;;;;;;;32.70;64.37;100732.50;5045841;28;67269;-41
2022/06/04 06:07:25;;;;;;;7.30;6.65;;;;;;;32.74;64.32;100731.00;5047699;28;70193;-41
2022/06/04 06:09:57;;;;;;;8.10;7.40;;;;;;;32.74;64.44;100728.28;5050699;28;66186;-40
2022/06/04 06:12:28;;;;;;;7.72;7.13;;;;;;;32.77;64.12;100719.66;5048456;28;70069;-40
2022/06/04 06:14:59;;;;;;;9.30;7.75;;;;;;;32.75;64.42;100713.63;5052082;28;65817;-40
2022/06/04 06:17:30;;;;;;;8.95;7.53;;;;;;;32.79;64.31;100714.81;5044791;28;69900;-41
2022/06/04 06:20:01;;;;;;;13.45;8.45;;;;;;;32.81;64.24;100712.66;5051268;28;66323;-42
2022/06/04 06:22:31;;;;;;;9.38;8.25;;;;;;;32.82;64.39;100711.63;5052010;28;69183;-40
2022/06/04 06:25:05;;;;;;;9.07;8.18;;;;;;;32.83;64.55;100710.53;5050552;28;66713;-41
2022/06/04 06:27:36;;;;;;;15.68;7.95;;;;;;;32.58;64.88;100697.22;5045900;28;70053;-41
2022/06/04 06:30:07;;;;;;;11.90;7.90;;;;;;;32.48;65.10;100696.97;5049121;28;66326;-42
2022/06/04 06:32:40;;;;;;;14.10;7.45;;;;;;;32.40;65.55;100698.13;5045364;28;69933;-41
2022/06/04 06:35:11;;;;;;;9.90;6.20;;;;;;;32.37;65.51;100701.28;5045344;28;65527;-42
2022/06/04 06:37:42;;;;;;;15.98;5.22;;;;;;;32.34;65.90;100693.63;5051230;28;69776;-41
2022/06/04 06:40:13;;;;;;;8.97;5.17;;;;;;;32.27;66.15;100685.59;5041486;28;65233;-40
2022/06/04 06:42:44;;;;;;;5.93;5.30;;;;;;;32.28;66.13;100691.84;5049782;28;69852;-40
2022/06/04 06:45:14;;;;;;;5.53;4.70;;;;;;;32.28;66.01;100683.69;5059923;28;65751;-40
2022/06/04 06:47:45;;;;;;;4.75;4.32;;;;;;;32.29;65.73;100677.22;5048985;28;69371;-41
2022/06/04 06:50:16;;;;;;;4.50;4.03;;;;;;;32.31;65.86;100691.38;5045840;28;65757;-40
2022/06/04 06:52:47;;;;;;;4.28;3.90;;;;;;;32.26;65.80;100696.69;5041506;28;70050;-40
2022/06/04 06:55:18;;;;;;;6.25;3.67;;;;;;;32.29;65.78;100682.66;5054278;28;65028;-40
2022/06/04 06:57:49;;;;;;;4.13;3.33;;;;;;;32.30;65.48;100681.59;5057400;28;70203;-41
2022/06/04 07:00:20;;;;;;;5.72;2.92;;;;;;;32.26;65.92;100673.09;5048631;28;64752;-40
2022/06/04 07:02:51;;;;;;;2.90;2.67;;;;;;;32.29;65.69;100655.53;5044788;28;70240;-40
2022/06/04 07:05:21;;;;;;;3.40;3.10;;;;;;;32.34;65.71;100662.94;5051628;28;67137;-40
2022/06/04 07:07:52;;;;;;;3.90;2.50;;;;;;;32.34;65.98;100652.06;5047488;28;70036;-41
2022/06/04 07:10:23;;;;;;;5.47;2.30;;;;;;;32.36;65.55;100650.78;5046995;28;65913;-41
2022/06/04 07:12:54;;;;;;;5.05;1.95;;;;;;;32.30;65.42;100648.19;5053372;28;70427;-41
2022/06/04 07:15:25;;;;;;;4.35;2.22;;;;;;;32.37;65.74;100662.47;5048395;28;66304;-40
2022/06/04 07:17:55;;;;;;;2.42;2.22;;;;;;;32.39;65.48;100650.31;5048510;28;70023;-40
2022/06/04 07:20:30;;;;;;;2.20;1.75;;;;;;;32.34;65.21;100652.91;5039934;28;65239;-40
2022/06/04 07:23:01;;;;;;;2.03;1.90;;;;;;;32.39;65.42;100688.31;5054071;28;70132;-40
2022/06/04 07:25:32;;;;;;;2.88;2.35;;;;;;;32.38;65.27;100700.25;5046091;28;66370;-41
2022/06/04 07:28:04;;;;;;;4.87;2.07;;;;;;;32.54;65.08;100717.75;5055683;28;69447;-40
2022/06/04 07:30:35;;;;;;;4.97;1.90;;;;;;;32.69;65.07;100718.09;5046491;28;65695;-41
2022/06/04 07:33:06;;;;;;;2.25;1.77;;;;;;;32.71;64.97;100712.44;5047570;28;69232;-41
2022/06/04 07:35:37;;;;;;;7.85;1.75;;;;;;;32.77;64.42;100711.50;5043440;28;65560;-41
2022/06/04 07:38:08;;;;;;;11.37;2.07;;;;;;;32.88;64.52;100724.25;5047540;28;71876;-41
2022/06/04 07:40:39;;;;;;;2.53;1.75;;;;;;;32.93;64.15;100721.63;5044912;28;65569;-41
2022/06/04 07:43:11;;;;;;;13.30;2.10;;;;;;;32.98;64.10;100714.66;5034506;28;70212;-41
2022/06/04 07:45:42;;;;;;;8.05;2.25;;;;;;;32.98;63.97;100722.81;5030876;28;66477;-41
2022/06/04 07:48:13;;;;;;;3.78;2.42;;;;;;;33.03;64.03;100721.06;5047672;28;68918;-41
2022/06/04 07:50:44;;;;;;;3.78;2.08;;;;;;;33.06;63.71;100719.75;5046344;28;66140;-41
2022/06/04 07:53:14;;;;;;;2.08;1.83;;;;;;;33.10;63.94;100720.94;5037935;28;70539;-40
2022/06/04 07:55:45;;;;;;;8.83;2.30;;;;;;;33.06;63.81;100708.88;5048273;28;65244;-40
2022/06/04 07:58:16;;;;;;;3.05;1.55;;;;;;;33.09;63.66;100708.41;5049817;28;70290;-40
2022/06/04 08:00:53;;;;;;;3.92;1.55;;;;;;;33.09;63.52;100695.63;5052167;28;65616;-41
2022/06/04 08:03:24;;;;;;;2.65;1.83;;;;;;;33.15;63.44;100712.88;5043026;28;70225;-41
2022/06/04 08:05:55;;;;;;;1.90;1.60;;;;;;;32.86;63.19;100663.88;5046796;28;66289;-40
2022/06/04 08:08:26;;;;;;;4.50;1.73;;;;;;;33.15;63.28;100719.16;5040858;28;69704;-41
2022/06/04 08:10:58;;;;;;;8.23;1.60;;;;;;;33.13;63.08;100725.91;5049629;28;65410;-40
2022/06/04 08:13:29;;;;;;;4.45;1.80;;;;;;;33.15;63.09;100729.19;5057549;28;70110;-41
2022/06/04 08:16:01;;;;;;;3.50;1.90;;;;;;;33.13;63.34;100731.34;5043081;28;65187;-40
2022/06/04 08:18:32;;;;;;;2.90;1.60;;;;;;;33.14;63.16;100731.06;5053988;28;69420;-40
2022/06/04 08:21:06;;;;;;;2.53;1.70;;;;;;;33.00;62.88;100726.16;5038798;28;67586;-40
2022/06/04 08:23:39;;;;;;;4.90;2.22;;;;;;;32.69;64.41;100703.72;5055290;28;69334;-40
2022/06/04 08:26:11;;;;;;;11.20;2.40;;;;;;;32.60;65.16;100702.41;5059116;28;65231;-41
2022/06/04 08:28:42;;;;;;;3.17;2.20;;;;;;;32.52;65.70;100702.78;5042199;28;70781;-40
2022/06/04 08:31:15;;;;;;;3.00;2.20;;;;;;;32.08;65.96;100647.94;5052751;28;67166;-41
2022/06/04 08:33:46;;;;;;;3.30;2.30;;;;;;;32.30;66.46;100684.31;5048245;28;69450;-41
2022/06/04 08:36:19;;;;;;;2.20;1.80;;;;;;;32.29;66.45;100698.94;5051943;28;66112;-40
2022/06/04 08:38:50;;;;;;;2.50;2.17;;;;;;;32.29;66.32;100709.81;5045480;28;69782;-40
2022/06/04 08:41:44;;;;;;;4.10;2.20;;;;;;;31.77;66.67;100641.72;5049894;28;66586;-41
2022/06/04 08:44:34;;;;;;;19.17;3.20;;;;;;;32.31;67.45;100715.81;5043022;28;71551;-40
2022/06/04 08:47:10;;;;;;;51.05;4.85;;;;;;;32.51;66.48;100707.34;5055921;28;66405;-40
2022/06/04 08:50:07;;;;;;;23.52;4.32;;;;;;;32.24;64.39;100712.38;5054542;28;69327;-38
2022/06/04 08:52:44;;;;;;;17.25;3.20;;;;;;;32.07;66.67;100667.97;5035786;28;66102;-40
2022/06/04 08:58:21;;;;;;;70.28;14.57;;;;;;;32.26;66.87;100672.25;5057794;28;65482;-41
2022/06/04 09:01:07;;;;;;;49.90;14.02;;;;;;;31.98;65.82;100622.22;5057606;28;69555;-39
2022/06/04 09:03:47;;;;;;;33.00;9.77;;;;;;;32.34;65.28;100684.66;5051935;28;65696;-39
2022/06/04 09:06:27;;;;;;;22.92;6.43;;;;;;;32.23;63.26;100689.00;5050539;28;69377;-39
2022/06/04 09:08:58;;;;;;;10.93;4.35;;;;;;;32.23;63.13;100694.44;5051051;28;66166;-39
2022/06/04 09:11:49;;;;;;;23.27;4.90;;;;;;;31.96;63.93;100692.16;5034932;28;69354;-40
2022/06/04 09:14:27;;;;;;;13.90;7.20;;;;;;;31.76;62.53;100645.47;5051272;28;67110;-39
2022/06/04 09:17:10;;;;;;;20.77;5.63;;;;;;;32.09;64.31;100704.66;5048634;28;70156;-39
2022/06/04 09:19:47;;;;;;;7.78;4.45;;;;;;;31.76;64.13;100661.75;5051376;28;66232;-40
2022/06/04 09:22:25;;;;;;;6.32;3.42;;;;;;;31.87;63.19;100711.66;5039818;28;70516;-39
2022/06/04 09:24:56;;;;;;;11.43;3.78;;;;;;;31.86;62.29;100732.53;5051277;28;67110;-39
2022/06/04 09:27:52;;;;;;;18.15;3.42;;;;;;;31.68;62.76;100719.00;5043617;28;69593;-40
2022/06/04 09:30:40;;;;;;;6.80;3.20;;;;;;;31.31;63.00;100648.59;5039090;28;66126;-44
2022/06/04 09:33:35;;;;;;;5.88;3.90;;;;;;;31.55;62.79;100696.47;5038267;28;70284;-39
2022/06/04 09:36:12;;;;;;;10.98;3.75;;;;;;;31.62;62.88;100704.50;5040479;28;65991;-40
2022/06/04 09:39:02;;;;;;;5.90;3.22;;;;;;;31.53;62.42;100712.13;5044955;28;70379;-41
2022/06/04 09:41:34;;;;;;;9.32;3.13;;;;;;;31.47;63.71;100702.19;5044793;28;65840;-39
2022/06/04 09:44:15;;;;;;;2.95;2.67;;;;;;;31.47;63.79;100710.34;5046520;28;70501;-41
2022/06/04 09:46:51;;;;;;;4.73;2.80;;;;;;;31.59;63.94;100707.66;5047234;28;66532;-40
2022/06/04 09:49:43;;;;;;;5.88;2.80;;;;;;;31.63;65.33;100706.16;5045514;28;70383;-40
2022/06/04 09:52:55;;;;;;;4.82;3.10;;;;;;;31.53;65.20;100706.69;5047037;28;66322;-40
2022/06/04 09:55:28;;;;;;;4.13;2.80;;;;;;;31.55;65.28;100690.22;5052437;28;69962;-40
2022/06/04 09:57:58;;;;;;;12.57;3.17;;;;;;;31.55;65.67;100688.31;5044401;28;65521;-40
2022/06/04 10:00:36;;;;;;;2.95;2.75;;;;;;;31.20;66.29;100638.53;5058800;28;69443;-41
2022/06/04 10:03:18;;;;;;;9.85;2.63;;;;;;;31.45;64.95;100692.63;5054507;28;65367;-39
2022/06/04 10:06:00;;;;;;;2.60;2.40;;;;;;;31.52;65.99;100705.06;5047405;28;70796;-39
2022/06/04 10:09:55;;;;;;;2.60;1.95;;;;;;;31.53;65.96;100717.53;5043535;28;66198;-39
2022/06/04 10:11:24;;;;;;;;;;;;;;;31.19;67.90;100723.59;5032491;28;70167;-39
2022/06/04 10:13:58;;;;;;;14.82;2.85;;;;;;;31.47;67.62;100723.88;5048808;28;66414;-40
2022/06/04 10:16:40;;;;;;;2.65;2.42;;;;;;;30.85;67.65;100620.22;5040078;28;69936;-40
2022/06/04 10:19:14;;;;;;;4.28;2.28;;;;;;;31.53;67.57;100722.97;5047814;28;66128;-40
2022/06/04 10:21:49;;;;;;;7.82;2.95;;;;;;;31.08;66.89;100617.63;5044855;28;70229;-46
2022/06/04 10:24:31;;;;;;;6.70;2.13;;;;;;;31.71;66.20;100718.59;5042152;28;66399;-40
2022/06/04 10:27:22;;;;;;;4.57;2.80;;;;;;;31.83;66.31;100739.25;5042279;28;69731;-40
2022/06/04 10:30:14;;;;;;;9.88;2.88;;;;;;;31.90;65.73;100739.19;5037754;28;66141;-41
2022/06/04 10:32:58;;;;;;;7.28;2.63;;;;;;;31.95;65.27;100731.19;5051524;28;67662;-40
2022/06/04 10:35:40;;;;;;;10.65;3.25;;;;;;;32.06;65.85;100748.56;5045460;28;67003;-40
2022/06/04 10:38:29;;;;;;;5.20;2.80;;;;;;;32.13;65.32;100753.91;5046420;28;70488;-40
2022/06/04 10:41:48;;;;;;;5.32;2.50;;;;;;;32.06;65.42;100745.84;5044121;28;66287;-41
2022/06/04 10:44:52;;;;;;;5.00;2.95;;;;;;;32.10;65.56;100738.91;5036780;28;70152;-40
2022/06/04 10:47:50;;;;;;;4.03;2.63;;;;;;;32.15;65.48;100733.63;5048843;28;66252;-40
2022/06/04 10:53:45;;;;;;;4.65;2.63;;;;;;;32.24;65.16;100750.38;5047639;28;66259;-40
2022/06/04 10:56:23;;;;;;;7.93;3.10;;;;;;;32.25;65.15;100757.47;5049971;28;70344;-39
2022/06/04 10:59:06;;;;;;;4.53;3.28;;;;;;;32.25;65.05;100757.47;5061636;28;67456;-40
2022/06/04 11:02:06;;;;;;;3.70;3.40;;;;;;;32.14;65.44;100760.97;5060816;28;70339;-40
2022/06/04 11:04:42;;;;;;;3.58;3.28;;;;;;;32.25;65.00;100749.31;5051218;28;65986;-40
2022/06/04 11:07:33;;;;;;;2.90;2.60;;;;;;;32.20;65.20;100743.75;5046420;28;70316;-40
2022/06/04 11:10:13;;;;;;;6.20;3.55;;;;;;;32.09;65.47;100720.13;5041876;28;65848;-41
2022/06/04 11:12:50;;;;;;;3.90;3.42;;;;;;;32.25;65.07;100736.56;5052705;28;70223;-40
2022/06/04 11:15:29;;;;;;;8.45;3.95;;;;;;;31.96;64.76;100703.00;5045292;28;66441;-40
2022/06/04 11:18:25;;;;;;;4.82;3.75;;;;;;;32.28;65.14;100751.56;5045381;28;70522;-41
2022/06/04 11:21:38;;;;;;;4.35;3.83;;;;;;;32.10;65.67;100752.47;5046346;28;65424;-41
2022/06/04 11:24:15;;;;;;;4.03;3.72;;;;;;;32.26;65.38;100756.38;5049054;28;69307;-41
2022/06/04 11:27:07;;;;;;;5.70;4.07;;;;;;;32.25;65.21;100754.75;5056348;28;66236;-41
2022/06/04 11:29:39;;;;;;;4.20;3.80;;;;;;;32.28;65.08;100767.84;5051562;28;70191;-40
2022/06/04 11:32:18;;;;;;;5.03;4.53;;;;;;;31.97;65.26;100729.06;5049379;28;66160;-42
2022/06/04 11:35:03;;;;;;;4.15;3.75;;;;;;;32.30;64.86;100787.44;5044733;28;69725;-41
2022/06/04 11:37:47;;;;;;;7.82;3.90;;;;;;;31.96;65.13;100738.28;5047134;28;66363;-42
2022/06/04 11:40:37;;;;;;;7.90;4.30;;;;;;;31.64;65.11;100715.13;5040705;28;69593;-42
2022/06/04 11:43:30;;;;;;;6.45;4.38;;;;;;;32.23;65.67;100790.28;5042432;28;66609;-42
2022/06/04 11:46:26;;;;;;;4.47;4.18;;;;;;;32.16;66.00;100792.25;5042668;28;70270;-41
2022/06/04 11:49:04;;;;;;;3.75;3.47;;;;;;;32.24;65.70;100781.06;5050962;28;64936;-44
2022/06/04 11:52:03;;;;;;;4.50;4.10;;;;;;;31.80;66.77;100761.41;5048781;28;70092;-41
2022/06/04 11:54:49;;;;;;;8.50;4.20;;;;;;;31.87;66.79;100795.75;5031594;28;66597;-41
2022/06/04 11:57:50;;;;;;;5.28;4.05;;;;;;;31.54;67.29;100778.88;5040286;28;70094;-43
2022/06/04 12:00:30;;;;;;;9.55;4.15;;;;;;;31.58;67.08;100796.31;5043679;28;65683;-40
2022/06/04 12:03:27;;;;;;;5.32;4.85;;;;;;;31.05;67.53;100737.28;5040514;28;70614;-42
2022/06/04 12:06:04;;;;;;;4.72;4.35;;;;;;;31.45;67.39;100791.03;5044006;28;64858;-40
2022/06/04 12:08:46;;;;;;;5.10;4.60;;;;;;;31.40;67.01;100788.22;5049087;28;69927;-44
2022/06/04 12:11:22;;;;;;;5.55;4.65;;;;;;;31.41;67.25;100795.28;5048526;28;65432;-39
2022/06/04 12:14:01;;;;;;;8.70;4.68;;;;;;;31.40;67.30;100793.63;5050251;28;70177;-39
2022/06/04 12:16:47;;;;;;;4.50;4.20;;;;;;;31.38;67.92;100784.91;5050840;28;66353;-39
2022/06/04 12:25:20;;;;;;;6.15;4.30;;;;;;;31.29;67.73;100787.06;5056145;28;70162;-40